Sargents, Colorado
Current Conditions -  °F | °C
As of 6:54 AM on Monday 20 Oct 2014 (Local Time) from KMYP Reporting Station
Broken Clouds Broken Clouds  
Wind Chill: 34°   Ceiling: 6000
Heat Index: 34°   Visibility: 10mi
Dew Point: 30°   Wind: 3mph
Humidity: 87%   Direction: 120°ESE
Pressure: 30.59"   Gusts: NA
Location:  38.4°N, 106.42°W
Report Text: KMYP 201254Z AUTO 12003KT 10SM BKN060 01/M01 A3059 RMK AO2
Loading
Personal Weather Stations






























Interactive Weather Map
Tropical Storm Tracking
New forecast layout! Learn more

10-Day Weather Forecast

Advertisements
Track Severe Weather on mobile